Time;durP1;ratioP1;P1;durP2;ratioP2;P2;SDS_P1;SDS_P2;PMS_P1;PMS_P2;Temp;Humidity;BMP_temperature;BMP_pressure;BME280_temperature;BME280_humidity;BME280_pressure;Samples;Min_cycle;Max_cycle;Signal;HPM_P1;HPM_P2
2023/03/10 00:00:54;;;;;;;1.77;1.40;;;;;;;;;;6187228;28;20564;-74
2023/03/10 00:04:02;;;;;;;1.20;1.20;;;;;;;;;;6187200;28;20585;-74
2023/03/10 00:07:07;;;;;;;1.50;1.50;;;;;;;;;;6187523;28;20587;-75
2023/03/10 00:10:13;;;;;;;1.40;1.40;;;;;;;;;;6186842;28;20344;-73
2023/03/10 00:13:18;;;;;;;1.50;1.50;;;;;;;;;;6163851;28;20294;-74
2023/03/10 00:16:25;;;;;;;1.50;1.50;;;;;;;;;;6163416;28;20318;-73
2023/03/10 00:19:32;;;;;;;1.40;1.40;;;;;;;;;;6161217;28;20321;-73
2023/03/10 00:22:37;;;;;;;1.40;1.40;;;;;;;;;;6163709;28;20277;-74
2023/03/10 00:25:42;;;;;;;1.40;1.40;;;;;;;;;;6162642;28;20305;-73
2023/03/10 00:28:48;;;;;;;1.50;1.50;;;;;;;;;;6182692;28;20271;-74
2023/03/10 00:31:53;;;;;;;1.63;1.60;;;;;;;;;;6187602;28;20388;-73
2023/03/10 00:35:00;;;;;;;1.57;1.57;;;;;;;;;;6187073;28;20295;-74
2023/03/10 00:38:05;;;;;;;1.37;1.37;;;;;;;;;;6186385;28;20299;-74
2023/03/10 00:41:12;;;;;;;1.30;1.30;;;;;;;;;;6217098;28;20310;-73
2023/03/10 00:44:18;;;;;;;1.40;1.40;;;;;;;;;;6217725;28;20299;-74
2023/03/10 00:47:24;;;;;;;1.57;1.57;;;;;;;;;;6220501;28;20573;-74
2023/03/10 00:50:33;;;;;;;2.07;1.90;;;;;;;;;;6202830;28;20308;-73
2023/03/10 00:53:40;;;;;;;1.30;1.30;;;;;;;;;;6187665;28;20300;-74
2023/03/10 00:56:49;;;;;;;1.60;1.60;;;;;;;;;;6186600;28;20308;-74
2023/03/10 00:59:54;;;;;;;1.90;1.80;;;;;;;;;;6188950;28;20306;-74
2023/03/10 01:03:08;;;;;;;1.73;1.73;;;;;;;;;;6186497;28;20311;-73
2023/03/10 01:06:18;;;;;;;1.53;1.53;;;;;;;;;;6188065;28;20308;-73
2023/03/10 01:09:38;;;;;;;1.63;1.63;;;;;;;;;;6214315;28;20332;-75
2023/03/10 01:12:43;;;;;;;1.50;1.50;;;;;;;;;;6222262;28;20296;-75
2023/03/10 01:15:49;;;;;;;1.50;1.50;;;;;;;;;;6202833;28;20304;-74
2023/03/10 01:19:00;;;;;;;1.50;1.50;;;;;;;;;;6188127;28;20297;-74
2023/03/10 01:22:07;;;;;;;1.53;1.47;;;;;;;;;;6189308;28;20367;-75
2023/03/10 01:25:27;;;;;;;1.40;1.40;;;;;;;;;;6180082;28;20287;-75
2023/03/10 01:28:33;;;;;;;1.40;1.40;;;;;;;;;;6187665;28;20279;-74
2023/03/10 01:31:41;;;;;;;1.40;1.40;;;;;;;;;;6190764;28;20299;-74
2023/03/10 01:34:47;;;;;;;1.60;1.60;;;;;;;;;;6191410;28;20308;-74
2023/03/10 01:37:53;;;;;;;1.90;1.60;;;;;;;;;;6192398;28;20297;-75
2023/03/10 01:41:01;;;;;;;2.20;2.00;;;;;;;;;;6192339;28;20296;-74
2023/03/10 01:44:14;;;;;;;1.53;1.50;;;;;;;;;;6193217;28;20303;-74
2023/03/10 01:47:19;;;;;;;1.60;1.57;;;;;;;;;;6193897;28;20291;-74
2023/03/10 01:50:27;;;;;;;1.60;1.60;;;;;;;;;;6189393;28;20305;-73
2023/03/10 01:53:37;;;;;;;1.60;1.50;;;;;;;;;;6189644;28;20296;-75
2023/03/10 01:57:05;;;;;;;1.80;1.70;;;;;;;;;;6193539;28;20307;-75
2023/03/10 02:00:28;;;;;;;1.57;1.57;;;;;;;;;;6192526;28;20340;-75
2023/03/10 02:03:36;;;;;;;2.10;1.60;;;;;;;;;;6190598;28;20466;-75
2023/03/10 02:06:43;;;;;;;1.90;1.60;;;;;;;;;;6191817;28;20299;-73
2023/03/10 02:09:50;;;;;;;1.30;1.30;;;;;;;;;;6192162;28;20300;-74
2023/03/10 02:12:56;;;;;;;1.30;1.30;;;;;;;;;;6190890;28;20297;-75
2023/03/10 02:16:03;;;;;;;1.20;1.20;;;;;;;;;;6189285;28;20303;-75
2023/03/10 02:19:21;;;;;;;1.20;1.20;;;;;;;;;;6189469;28;20294;-75
2023/03/10 02:22:27;;;;;;;1.27;1.27;;;;;;;;;;6220529;28;20316;-73
2023/03/10 02:25:41;;;;;;;1.10;1.10;;;;;;;;;;6186539;28;20304;-74
2023/03/10 02:28:48;;;;;;;1.20;1.20;;;;;;;;;;6188918;28;20264;-74
2023/03/10 02:31:54;;;;;;;2.50;1.30;;;;;;;;;;6189605;28;20294;-74
2023/03/10 02:35:00;;;;;;;1.40;1.40;;;;;;;;;;6189261;28;20303;-74
2023/03/10 02:38:06;;;;;;;1.37;1.23;;;;;;;;;;6219946;28;20310;-74
2023/03/10 02:41:19;;;;;;;1.20;1.20;;;;;;;;;;6219380;28;20295;-75
2023/03/10 02:44:26;;;;;;;1.10;1.10;;;;;;;;;;6219242;28;20300;-74
2023/03/10 02:47:31;;;;;;;1.20;1.20;;;;;;;;;;6189172;28;20299;-74
2023/03/10 02:50:39;;;;;;;1.10;1.10;;;;;;;;;;6221547;28;20486;-73
2023/03/10 02:53:44;;;;;;;1.43;1.20;;;;;;;;;;6186922;28;20296;-73
2023/03/10 02:56:49;;;;;;;1.10;1.10;;;;;;;;;;6188072;28;20308;-74
2023/03/10 02:59:56;;;;;;;1.00;1.00;;;;;;;;;;6219488;28;20383;-74
2023/03/10 03:03:02;;;;;;;1.30;1.30;;;;;;;;;;6188937;28;20294;-75
2023/03/10 03:06:08;;;;;;;1.20;1.20;;;;;;;;;;6186970;28;20315;-74
2023/03/10 03:09:14;;;;;;;1.40;1.40;;;;;;;;;;6187622;28;20376;-74
2023/03/10 03:12:19;;;;;;;1.40;1.40;;;;;;;;;;6186595;28;20304;-74
2023/03/10 03:15:26;;;;;;;1.40;1.30;;;;;;;;;;6218885;28;20310;-74
2023/03/10 03:18:32;;;;;;;1.30;1.30;;;;;;;;;;6187730;28;20295;-75
2023/03/10 03:21:38;;;;;;;1.30;1.30;;;;;;;;;;6188414;28;20294;-75
2023/03/10 03:24:43;;;;;;;1.23;1.23;;;;;;;;;;6187706;28;20299;-75
2023/03/10 03:27:49;;;;;;;1.50;1.50;;;;;;;;;;6189085;28;20320;-76
2023/03/10 03:30:58;;;;;;;1.20;1.20;;;;;;;;;;6189062;28;20305;-75
2023/03/10 03:34:15;;;;;;;1.43;1.40;;;;;;;;;;6212622;28;20598;-75
2023/03/10 03:37:23;;;;;;;1.20;1.20;;;;;;;;;;6185449;28;20306;-74
2023/03/10 03:40:32;;;;;;;1.50;1.50;;;;;;;;;;6218106;28;20299;-75
2023/03/10 03:43:38;;;;;;;1.43;1.43;;;;;;;;;;6184548;28;20276;-75
2023/03/10 03:46:46;;;;;;;1.33;1.30;;;;;;;;;;6186474;28;20273;-74
2023/03/10 03:49:51;;;;;;;1.40;1.40;;;;;;;;;;6186147;28;20297;-74
2023/03/10 03:52:56;;;;;;;1.30;1.30;;;;;;;;;;6219136;28;20299;-74
2023/03/10 03:56:06;;;;;;;1.30;1.30;;;;;;;;;;6186148;28;20299;-74
2023/03/10 03:59:14;;;;;;;1.30;1.30;;;;;;;;;;6217955;28;20306;-75
2023/03/10 04:02:20;;;;;;;1.40;1.40;;;;;;;;;;6186693;28;20297;-74
2023/03/10 04:05:26;;;;;;;1.30;1.30;;;;;;;;;;6217654;28;20312;-75
2023/03/10 04:08:31;;;;;;;1.30;1.30;;;;;;;;;;6217347;28;20475;-75
2023/03/10 04:11:37;;;;;;;1.50;1.50;;;;;;;;;;6187419;28;20299;-75
2023/03/10 04:14:42;;;;;;;1.33;1.33;;;;;;;;;;6217118;28;20511;-75
2023/03/10 04:17:49;;;;;;;1.30;1.30;;;;;;;;;;6217331;28;20379;-75
2023/03/10 04:20:55;;;;;;;1.30;1.30;;;;;;;;;;6218024;28;20389;-74
2023/03/10 04:24:01;;;;;;;1.30;1.30;;;;;;;;;;6186407;28;20373;-74
2023/03/10 04:27:10;;;;;;;1.10;1.10;;;;;;;;;;6217810;28;20294;-74
2023/03/10 04:30:16;;;;;;;1.33;1.33;;;;;;;;;;6187890;28;20353;-73
2023/03/10 04:33:26;;;;;;;1.33;1.33;;;;;;;;;;6217737;28;20324;-74
2023/03/10 04:36:32;;;;;;;1.60;1.60;;;;;;;;;;6218531;28;20296;-74
2023/03/10 04:39:39;;;;;;;1.40;1.40;;;;;;;;;;6192242;28;20312;-73
2023/03/10 04:42:44;;;;;;;1.40;1.40;;;;;;;;;;6224472;28;20459;-74
2023/03/10 04:45:50;;;;;;;1.00;1.00;;;;;;;;;;6220213;28;20315;-73
2023/03/10 04:48:57;;;;;;;1.50;1.40;;;;;;;;;;6184655;28;20300;-74
2023/03/10 04:52:02;;;;;;;1.20;1.20;;;;;;;;;;6217277;28;20550;-74
2023/03/10 04:55:08;;;;;;;1.27;1.27;;;;;;;;;;6217188;28;20616;-75
2023/03/10 04:58:15;;;;;;;1.10;1.10;;;;;;;;;;6217589;28;20310;-75
2023/03/10 05:01:21;;;;;;;1.37;1.37;;;;;;;;;;6186063;28;20290;-73
2023/03/10 05:04:31;;;;;;;1.73;1.63;;;;;;;;;;6184047;28;20312;-73
2023/03/10 05:07:37;;;;;;;1.67;1.67;;;;;;;;;;6189821;28;20591;-74
2023/03/10 05:10:44;;;;;;;1.70;1.70;;;;;;;;;;6222154;28;20454;-75
2023/03/10 05:13:50;;;;;;;1.67;1.67;;;;;;;;;;6221842;28;20318;-75
2023/03/10 05:16:55;;;;;;;1.80;1.60;;;;;;;;;;6222091;28;20353;-73
2023/03/10 05:20:02;;;;;;;1.70;1.70;;;;;;;;;;6190692;28;20579;-74
2023/03/10 05:23:08;;;;;;;1.43;1.43;;;;;;;;;;6221359;28;20351;-74
2023/03/10 05:26:15;;;;;;;1.50;1.40;;;;;;;;;;6221836;28;20311;-73
2023/03/10 05:29:20;;;;;;;1.47;1.47;;;;;;;;;;6188854;28;20299;-74
2023/03/10 05:32:30;;;;;;;2.07;1.10;;;;;;;;;;6221830;28;20298;-74
2023/03/10 05:35:38;;;;;;;2.40;1.13;;;;;;;;;;6190117;28;20319;-74
2023/03/10 05:38:44;;;;;;;1.30;1.30;;;;;;;;;;6221507;28;20313;-75
2023/03/10 05:41:51;;;;;;;2.00;1.13;;;;;;;;;;6189392;28;20296;-74
2023/03/10 05:44:58;;;;;;;1.50;1.50;;;;;;;;;;6189100;28;20298;-75
2023/03/10 05:48:04;;;;;;;1.20;1.20;;;;;;;;;;6189226;28;20298;-74
2023/03/10 05:51:13;;;;;;;1.20;1.20;;;;;;;;;;6222865;28;20292;-73
2023/03/10 05:54:18;;;;;;;1.30;1.30;;;;;;;;;;6221325;28;20323;-74
2023/03/10 05:57:24;;;;;;;3.40;1.17;;;;;;;;;;6190620;28;20578;-74
2023/03/10 06:00:30;;;;;;;1.10;1.10;;;;;;;;;;6221445;28;20496;-74
2023/03/10 06:03:38;;;;;;;1.20;1.20;;;;;;;;;;6221306;28;20300;-74
2023/03/10 06:06:47;;;;;;;1.43;1.33;;;;;;;;;;6192241;28;20560;-75
2023/03/10 06:09:53;;;;;;;1.20;1.20;;;;;;;;;;6191879;28;20303;-73
2023/03/10 06:12:58;;;;;;;1.20;1.20;;;;;;;;;;6190349;28;20296;-73
2023/03/10 06:16:06;;;;;;;1.00;1.00;;;;;;;;;;6190621;28;20300;-73
2023/03/10 06:19:11;;;;;;;1.50;1.30;;;;;;;;;;6189506;28;20319;-73
2023/03/10 06:22:18;;;;;;;1.10;1.10;;;;;;;;;;6190589;28;20292;-73
2023/03/10 06:25:23;;;;;;;1.10;1.10;;;;;;;;;;6190019;28;20314;-72
2023/03/10 06:28:31;;;;;;;2.00;1.60;;;;;;;;;;6189650;28;20323;-71
2023/03/10 06:31:37;;;;;;;1.50;1.50;;;;;;;;;;6190007;28;20320;-73
2023/03/10 06:34:43;;;;;;;1.40;1.30;;;;;;;;;;6189237;28;20308;-74
2023/03/10 06:37:49;;;;;;;1.90;1.80;;;;;;;;;;6188789;28;20493;-71
2023/03/10 06:40:55;;;;;;;1.67;1.60;;;;;;;;;;6189790;28;20449;-74
2023/03/10 06:44:00;;;;;;;1.60;1.50;;;;;;;;;;6189315;28;20614;-74
2023/03/10 06:47:05;;;;;;;1.47;1.47;;;;;;;;;;6189614;28;20293;-73
2023/03/10 06:50:13;;;;;;;1.30;1.27;;;;;;;;;;6189098;28;20310;-73
2023/03/10 06:53:21;;;;;;;1.30;1.30;;;;;;;;;;6188653;28;20305;-73
2023/03/10 06:56:27;;;;;;;1.30;1.30;;;;;;;;;;6188126;28;20316;-74
2023/03/10 06:59:32;;;;;;;1.40;1.40;;;;;;;;;;6188841;28;20459;-73
2023/03/10 07:02:38;;;;;;;3.13;1.47;;;;;;;;;;6189098;28;20309;-75
2023/03/10 07:05:43;;;;;;;1.37;1.37;;;;;;;;;;6189119;28;20312;-74
2023/03/10 07:08:50;;;;;;;2.83;1.57;;;;;;;;;;6188160;28;20321;-74
2023/03/10 07:11:55;;;;;;;2.00;1.60;;;;;;;;;;6188781;28;20301;-73
2023/03/10 07:15:01;;;;;;;1.73;1.60;;;;;;;;;;6219628;28;20301;-73
2023/03/10 07:18:06;;;;;;;1.50;1.50;;;;;;;;;;6188494;28;20297;-73
2023/03/10 07:21:15;;;;;;;1.80;1.47;;;;;;;;;;6189130;28;20293;-73
2023/03/10 07:24:21;;;;;;;1.20;1.20;;;;;;;;;;6188648;28;20306;-74
2023/03/10 07:27:27;;;;;;;1.80;1.70;;;;;;;;;;6188955;28;20595;-74
2023/03/10 07:30:33;;;;;;;2.57;1.50;;;;;;;;;;6187974;28;20310;-73
2023/03/10 07:33:38;;;;;;;1.70;1.70;;;;;;;;;;6188388;28;20305;-73
2023/03/10 07:36:43;;;;;;;2.17;1.93;;;;;;;;;;6188308;28;20304;-73
2023/03/10 07:39:50;;;;;;;1.80;1.70;;;;;;;;;;6187936;28;20369;-73
2023/03/10 07:42:55;;;;;;;1.30;1.20;;;;;;;;;;6175993;28;20597;-74
2023/03/10 07:46:05;;;;;;;2.87;1.40;;;;;;;;;;6167537;28;20307;-74
2023/03/10 07:49:11;;;;;;;1.57;1.50;;;;;;;;;;6164145;28;20298;-74
2023/03/10 07:52:17;;;;;;;3.50;1.67;;;;;;;;;;6194576;28;20302;-74
2023/03/10 07:55:24;;;;;;;1.50;1.50;;;;;;;;;;6163660;28;20302;-74
2023/03/10 07:58:29;;;;;;;3.03;1.70;;;;;;;;;;6163003;28;20310;-73
2023/03/10 08:01:34;;;;;;;1.33;1.33;;;;;;;;;;6194915;28;20274;-73
2023/03/10 08:04:39;;;;;;;1.80;1.70;;;;;;;;;;6163421;28;20300;-73
2023/03/10 08:07:45;;;;;;;1.63;1.40;;;;;;;;;;6163545;28;20304;-74
2023/03/10 08:10:59;;;;;;;1.50;1.33;;;;;;;;;;6171960;28;20308;-74
2023/03/10 08:14:04;;;;;;;2.60;1.30;;;;;;;;;;6187509;28;20294;-74
2023/03/10 08:17:09;;;;;;;1.20;1.20;;;;;;;;;;6187746;28;20309;-74
2023/03/10 08:20:15;;;;;;;1.90;1.80;;;;;;;;;;6187082;28;20302;-74
2023/03/10 08:23:20;;;;;;;3.20;1.53;;;;;;;;;;6186967;28;20314;-74
2023/03/10 08:26:26;;;;;;;1.63;1.53;;;;;;;;;;6187440;28;20301;-73
2023/03/10 08:29:31;;;;;;;1.93;1.67;;;;;;;;;;6186426;28;20327;-73
2023/03/10 08:32:37;;;;;;;1.93;1.60;;;;;;;;;;6188121;28;20311;-72
2023/03/10 08:35:42;;;;;;;3.03;1.70;;;;;;;;;;6186562;28;20298;-72
2023/03/10 08:38:48;;;;;;;1.50;1.50;;;;;;;;;;6186855;28;20303;-72
2023/03/10 08:41:55;;;;;;;1.80;1.50;;;;;;;;;;6186520;28;20625;-72
2023/03/10 08:45:01;;;;;;;1.80;1.70;;;;;;;;;;6217621;28;20298;-71
2023/03/10 08:48:06;;;;;;;1.70;1.63;;;;;;;;;;6186782;28;20375;-72
2023/03/10 08:51:12;;;;;;;5.00;1.80;;;;;;;;;;6186883;28;20297;-72
2023/03/10 08:54:21;;;;;;;1.67;1.60;;;;;;;;;;6186576;28;20302;-72
2023/03/10 08:57:28;;;;;;;1.90;1.80;;;;;;;;;;6186654;28;20294;-72
2023/03/10 09:00:33;;;;;;;2.00;1.87;;;;;;;;;;6185683;28;20462;-73
2023/03/10 09:03:40;;;;;;;2.47;2.37;;;;;;;;;;6186292;28;20289;-71
2023/03/10 09:06:45;;;;;;;1.80;1.70;;;;;;;;;;6186101;28;20353;-73
2023/03/10 09:09:50;;;;;;;1.90;1.80;;;;;;;;;;6186164;28;20306;-72
2023/03/10 09:12:57;;;;;;;3.40;1.73;;;;;;;;;;6184959;28;20290;-73
2023/03/10 09:16:18;;;;;;;1.83;1.80;;;;;;;;;;6186499;28;20592;-72
2023/03/10 09:19:23;;;;;;;2.27;1.40;;;;;;;;;;6216729;28;20298;-72
2023/03/10 09:22:28;;;;;;;1.80;1.80;;;;;;;;;;6218335;28;20294;-74
2023/03/10 09:25:33;;;;;;;5.13;2.80;;;;;;;;;;6187952;28;20298;-72
2023/03/10 09:28:40;;;;;;;1.87;1.87;;;;;;;;;;6216737;28;20308;-71
2023/03/10 09:31:46;;;;;;;2.20;2.10;;;;;;;;;;6186299;28;20276;-71
2023/03/10 09:34:52;;;;;;;2.17;2.07;;;;;;;;;;6186162;28;20596;-72
2023/03/10 09:37:58;;;;;;;2.23;1.90;;;;;;;;;;6216740;28;20234;-72
2023/03/10 09:41:14;;;;;;;2.87;1.87;;;;;;;;;;6185857;28;20582;-73
2023/03/10 09:44:26;;;;;;;2.33;1.60;;;;;;;;;;6186928;28;20294;-72
2023/03/10 09:47:42;;;;;;;1.70;1.70;;;;;;;;;;6186535;28;20298;-72
2023/03/10 09:50:48;;;;;;;1.60;1.60;;;;;;;;;;6185504;28;20437;-71
2023/03/10 09:54:02;;;;;;;1.53;1.53;;;;;;;;;;6189900;28;20304;-72
2023/03/10 09:57:15;;;;;;;1.97;1.50;;;;;;;;;;6190570;28;20297;-72
2023/03/10 10:00:24;;;;;;;4.30;1.73;;;;;;;;;;6190133;28;20298;-72
2023/03/10 10:03:34;;;;;;;2.13;1.60;;;;;;;;;;6190217;28;20290;-72
2023/03/10 10:06:57;;;;;;;1.70;1.70;;;;;;;;;;6190188;28;20302;-72
2023/03/10 10:10:08;;;;;;;1.73;1.63;;;;;;;;;;6190366;28;20306;-73
2023/03/10 10:13:15;;;;;;;1.60;1.60;;;;;;;;;;6190222;28;20619;-72
2023/03/10 10:16:29;;;;;;;1.63;1.60;;;;;;;;;;6220915;28;20305;-72
2023/03/10 10:19:39;;;;;;;1.40;1.40;;;;;;;;;;6188985;28;20403;-72
2023/03/10 10:22:45;;;;;;;1.87;1.77;;;;;;;;;;6188790;28;20277;-73
2023/03/10 10:25:50;;;;;;;3.30;1.73;;;;;;;;;;6189525;28;20293;-73
2023/03/10 10:28:57;;;;;;;3.50;1.33;;;;;;;;;;6189444;28;20298;-73
2023/03/10 10:32:06;;;;;;;1.67;1.43;;;;;;;;;;6190531;28;20293;-73
2023/03/10 10:35:15;;;;;;;1.67;1.47;;;;;;;;;;6189658;28;20313;-72
2023/03/10 10:38:25;;;;;;;1.37;1.27;;;;;;;;;;6189331;28;20300;-72
2023/03/10 10:41:31;;;;;;;3.90;1.47;;;;;;;;;;6190140;28;20292;-73
2023/03/10 10:44:41;;;;;;;2.40;1.73;;;;;;;;;;6189820;28;20317;-73
2023/03/10 10:47:50;;;;;;;1.80;1.60;;;;;;;;;;6189041;28;20306;-72
2023/03/10 10:50:55;;;;;;;2.10;1.53;;;;;;;;;;6188553;28;20293;-72
2023/03/10 10:54:03;;;;;;;2.30;2.10;;;;;;;;;;6188860;28;20312;-73
2023/03/10 10:57:19;;;;;;;3.47;2.10;;;;;;;;;;6187382;28;20341;-73
2023/03/10 11:00:27;;;;;;;1.93;1.83;;;;;;;;;;6219636;28;20392;-72
2023/03/10 11:03:35;;;;;;;2.30;2.20;;;;;;;;;;6188521;28;20317;-72
2023/03/10 11:06:41;;;;;;;2.00;2.00;;;;;;;;;;6188630;28;20303;-72
2023/03/10 11:09:46;;;;;;;2.20;2.20;;;;;;;;;;6188041;28;20298;-73
2023/03/10 11:12:58;;;;;;;2.20;2.10;;;;;;;;;;6188989;28;20439;-72
2023/03/10 11:16:13;;;;;;;2.63;1.73;;;;;;;;;;6189424;28;20369;-73
2023/03/10 11:19:25;;;;;;;3.10;2.10;;;;;;;;;;6195764;28;20308;-73
2023/03/10 11:22:39;;;;;;;2.40;2.20;;;;;;;;;;6196561;28;20277;-72
2023/03/10 11:25:48;;;;;;;1.97;1.83;;;;;;;;;;6188640;28;20297;-73
2023/03/10 11:28:55;;;;;;;2.63;1.80;;;;;;;;;;6188043;28;20290;-72
2023/03/10 11:32:08;;;;;;;2.13;1.90;;;;;;;;;;6188361;28;20288;-72
2023/03/10 11:35:22;;;;;;;2.33;1.90;;;;;;;;;;6188241;28;20301;-72
2023/03/10 11:38:35;;;;;;;2.00;1.90;;;;;;;;;;6187701;28;20474;-73
2023/03/10 11:41:47;;;;;;;2.30;2.10;;;;;;;;;;6188093;28;20294;-72
2023/03/10 11:45:01;;;;;;;3.67;2.70;;;;;;;;;;6187805;28;20326;-74
2023/03/10 11:48:32;;;;;;;2.30;2.20;;;;;;;;;;6187592;28;20305;-73
2023/03/10 11:51:42;;;;;;;2.90;2.10;;;;;;;;;;6188406;28;20581;-72
2023/03/10 11:54:50;;;;;;;5.10;2.47;;;;;;;;;;6187661;28;20298;-72
2023/03/10 11:57:58;;;;;;;2.47;2.10;;;;;;;;;;6187359;28;20298;-73
2023/03/10 12:01:04;;;;;;;3.53;2.60;;;;;;;;;;6188377;28;20300;-72
2023/03/10 12:04:15;;;;;;;4.57;2.20;;;;;;;;;;6187692;28;20290;-71
2023/03/10 12:07:24;;;;;;;2.60;2.40;;;;;;;;;;6187598;28;20479;-72
2023/03/10 12:10:30;;;;;;;3.37;2.20;;;;;;;;;;6186206;28;20294;-73
2023/03/10 12:13:43;;;;;;;1.97;1.93;;;;;;;;;;6218676;28;20305;-72
2023/03/10 12:16:49;;;;;;;2.47;2.37;;;;;;;;;;6187402;28;20273;-73
2023/03/10 12:20:24;;;;;;;2.33;2.23;;;;;;;;;;6186990;28;20298;-72
2023/03/10 12:23:40;;;;;;;3.90;2.87;;;;;;;;;;6187098;28;20468;-73
2023/03/10 12:27:03;;;;;;;4.53;2.70;;;;;;;;;;6187840;28;20285;-73
2023/03/10 12:30:44;;;;;;;4.53;2.57;;;;;;;;;;6185580;28;20305;-73
2023/03/10 12:33:53;;;;;;;3.20;3.00;;;;;;;;;;6186408;28;20311;-71
2023/03/10 12:37:06;;;;;;;3.00;2.90;;;;;;;;;;6187460;28;20290;-72
2023/03/10 12:40:45;;;;;;;3.67;3.47;;;;;;;;;;6189973;28;20293;-72
2023/03/10 12:44:00;;;;;;;4.07;2.57;;;;;;;;;;6185520;28;20297;-72
2023/03/10 12:47:41;;;;;;;3.63;3.13;;;;;;;;;;6187104;28;20301;-72
2023/03/10 12:50:51;;;;;;;3.33;3.03;;;;;;;;;;6181213;28;20559;-74
2023/03/10 12:54:00;;;;;;;5.23;2.90;;;;;;;;;;6186004;28;20302;-73
2023/03/10 12:57:10;;;;;;;2.60;2.60;;;;;;;;;;6186621;28;20308;-73
2023/03/10 13:00:25;;;;;;;3.93;3.20;;;;;;;;;;6186645;28;20301;-72
2023/03/10 13:03:36;;;;;;;3.77;2.63;;;;;;;;;;6186228;28;20587;-72
2023/03/10 13:06:42;;;;;;;6.77;2.97;;;;;;;;;;6185976;28;20309;-72
2023/03/10 13:09:48;;;;;;;2.90;2.70;;;;;;;;;;6186326;28;20297;-72
2023/03/10 13:12:57;;;;;;;2.73;2.57;;;;;;;;;;6186533;28;20302;-72
2023/03/10 13:16:05;;;;;;;3.00;2.83;;;;;;;;;;6217739;28;20299;-72
2023/03/10 13:19:20;;;;;;;2.57;2.43;;;;;;;;;;6186331;28;20300;-72
2023/03/10 13:22:25;;;;;;;4.27;2.70;;;;;;;;;;6186521;28;20295;-73
2023/03/10 13:25:35;;;;;;;2.80;2.10;;;;;;;;;;6184976;28;20591;-72
2023/03/10 13:28:49;;;;;;;4.00;2.43;;;;;;;;;;6191369;28;20298;-71
2023/03/10 13:31:56;;;;;;;3.50;2.60;;;;;;;;;;6189998;28;20303;-73
2023/03/10 13:35:16;;;;;;;3.53;2.40;;;;;;;;;;6191157;28;20300;-72
2023/03/10 13:38:23;;;;;;;2.27;2.17;;;;;;;;;;6190980;28;20301;-72
2023/03/10 13:41:29;;;;;;;4.17;2.17;;;;;;;;;;6191756;28;20297;-73
2023/03/10 13:44:37;;;;;;;3.47;2.30;;;;;;;;;;6189485;28;20310;-72
2023/03/10 13:47:44;;;;;;;6.40;2.33;;;;;;;;;;6191034;28;20303;-72
2023/03/10 13:51:07;;;;;;;2.10;2.00;;;;;;;;;;6190146;28;20303;-73
2023/03/10 13:54:20;;;;;;;3.47;2.80;;;;;;;;;;6190211;28;20291;-72
2023/03/10 13:57:28;;;;;;;2.50;2.40;;;;;;;;;;6190936;28;20475;-73
2023/03/10 14:00:35;;;;;;;2.70;2.60;;;;;;;;;;6189749;28;20306;-73
2023/03/10 14:03:55;;;;;;;2.87;2.67;;;;;;;;;;6221238;28;20286;-73
2023/03/10 14:07:09;;;;;;;2.33;2.30;;;;;;;;;;6188806;28;20320;-74
2023/03/10 14:10:18;;;;;;;2.90;2.70;;;;;;;;;;6190090;28;20496;-71
2023/03/10 14:13:40;;;;;;;3.27;3.07;;;;;;;;;;6190092;28;20304;-73
2023/03/10 14:16:47;;;;;;;2.60;2.30;;;;;;;;;;6191728;28;20294;-73
2023/03/10 14:19:54;;;;;;;4.57;2.80;;;;;;;;;;6191110;28;20560;-73
2023/03/10 14:23:00;;;;;;;2.80;2.63;;;;;;;;;;6189687;28;20456;-73
2023/03/10 14:26:10;;;;;;;4.63;2.90;;;;;;;;;;6190323;28;20293;-73
2023/03/10 14:29:17;;;;;;;3.77;3.03;;;;;;;;;;6189408;28;20303;-72
2023/03/10 14:32:23;;;;;;;2.60;2.50;;;;;;;;;;6190290;28;20305;-73
2023/03/10 14:35:30;;;;;;;3.07;2.70;;;;;;;;;;6189330;28;20301;-73
2023/03/10 14:38:35;;;;;;;2.40;2.30;;;;;;;;;;6188090;28;20295;-72
2023/03/10 14:41:40;;;;;;;2.40;2.20;;;;;;;;;;6191074;28;20300;-73
2023/03/10 14:44:46;;;;;;;2.20;2.20;;;;;;;;;;6188474;28;20298;-73
2023/03/10 14:47:51;;;;;;;2.10;2.00;;;;;;;;;;6189367;28;20306;-72
2023/03/10 14:50:58;;;;;;;2.00;1.90;;;;;;;;;;6189615;28;20469;-73
2023/03/10 14:54:04;;;;;;;2.93;2.40;;;;;;;;;;6189396;28;20296;-72
2023/03/10 14:57:10;;;;;;;2.10;1.93;;;;;;;;;;6189750;28;20603;-74
2023/03/10 15:00:18;;;;;;;2.30;1.80;;;;;;;;;;6188648;28;20301;-73
2023/03/10 15:03:23;;;;;;;2.53;1.80;;;;;;;;;;6188834;28;20325;-73
2023/03/10 15:06:29;;;;;;;2.17;2.03;;;;;;;;;;6189157;28;20446;-72
2023/03/10 15:09:34;;;;;;;1.60;1.60;;;;;;;;;;6188888;28;20573;-73
2023/03/10 15:12:40;;;;;;;1.67;1.53;;;;;;;;;;6190613;28;20292;-73
2023/03/10 15:15:46;;;;;;;1.73;1.70;;;;;;;;;;6219796;28;20294;-74
2023/03/10 15:18:52;;;;;;;1.50;1.50;;;;;;;;;;6188193;28;20309;-74
2023/03/10 15:21:59;;;;;;;2.10;1.40;;;;;;;;;;6187760;28;20293;-73
2023/03/10 15:25:05;;;;;;;2.23;2.07;;;;;;;;;;6218473;28;20300;-74
2023/03/10 15:28:12;;;;;;;1.63;1.47;;;;;;;;;;6188240;28;20300;-74
2023/03/10 15:31:18;;;;;;;2.87;1.70;;;;;;;;;;6189084;28;20606;-74
2023/03/10 15:34:23;;;;;;;4.30;1.80;;;;;;;;;;6188101;28;20307;-75
2023/03/10 15:37:29;;;;;;;1.50;1.50;;;;;;;;;;6188893;28;20301;-74
2023/03/10 15:40:37;;;;;;;1.43;1.43;;;;;;;;;;6217849;28;20471;-74
2023/03/10 15:43:42;;;;;;;1.80;1.70;;;;;;;;;;6187987;28;20326;-74
2023/03/10 15:46:49;;;;;;;1.70;1.70;;;;;;;;;;6188026;28;20274;-74
2023/03/10 15:49:54;;;;;;;1.63;1.60;;;;;;;;;;6187451;28;20285;-74
2023/03/10 15:53:01;;;;;;;1.67;1.60;;;;;;;;;;6187830;28;20348;-74
2023/03/10 15:56:07;;;;;;;1.77;1.77;;;;;;;;;;6192362;28;20293;-75
2023/03/10 15:59:12;;;;;;;1.53;1.53;;;;;;;;;;6188176;28;20301;-75
2023/03/10 16:02:17;;;;;;;1.63;1.63;;;;;;;;;;6188095;28;20297;-75
2023/03/10 16:05:22;;;;;;;1.87;1.77;;;;;;;;;;6187749;28;20295;-75
2023/03/10 16:08:31;;;;;;;1.50;1.50;;;;;;;;;;6187367;28;20300;-74
2023/03/10 16:11:36;;;;;;;1.90;1.80;;;;;;;;;;6187832;28;20288;-74
2023/03/10 16:14:41;;;;;;;5.20;2.10;;;;;;;;;;6187225;28;20298;-74
2023/03/10 16:17:46;;;;;;;2.00;1.90;;;;;;;;;;6188108;28;20304;-74
2023/03/10 16:20:58;;;;;;;2.27;2.20;;;;;;;;;;6186916;28;20491;-74
2023/03/10 16:24:05;;;;;;;3.80;2.40;;;;;;;;;;6186976;28;20302;-74
2023/03/10 16:27:10;;;;;;;2.57;2.30;;;;;;;;;;6187384;28;20286;-75
2023/03/10 16:30:17;;;;;;;3.93;2.00;;;;;;;;;;6186982;28;20305;-75
2023/03/10 16:33:23;;;;;;;2.77;2.17;;;;;;;;;;6187168;28;20617;-74
2023/03/10 16:36:29;;;;;;;1.80;1.80;;;;;;;;;;6187071;28;20297;-73
2023/03/10 16:39:35;;;;;;;2.10;2.00;;;;;;;;;;6186672;28;20294;-75
2023/03/10 16:42:44;;;;;;;2.37;2.10;;;;;;;;;;6186765;28;20294;-74
2023/03/10 16:45:50;;;;;;;2.13;1.83;;;;;;;;;;6188028;28;20310;-74
2023/03/10 16:48:56;;;;;;;3.13;2.23;;;;;;;;;;6186259;28;20304;-74
2023/03/10 16:52:02;;;;;;;2.70;2.37;;;;;;;;;;6186560;28;20294;-74
2023/03/10 16:55:15;;;;;;;2.93;2.40;;;;;;;;;;6186207;28;20604;-75
2023/03/10 16:58:21;;;;;;;2.53;2.33;;;;;;;;;;6186752;28;20298;-74
2023/03/10 17:01:26;;;;;;;2.23;2.13;;;;;;;;;;6185858;28;20480;-74
2023/03/10 17:04:32;;;;;;;2.40;2.00;;;;;;;;;;6185089;28;20298;-74
2023/03/10 17:07:37;;;;;;;2.23;2.07;;;;;;;;;;6186777;28;20313;-74
2023/03/10 17:11:00;;;;;;;2.83;2.23;;;;;;;;;;6186350;28;20352;-74
2023/03/10 17:14:08;;;;;;;2.33;2.23;;;;;;;;;;6186558;28;20291;-74
2023/03/10 17:17:13;;;;;;;2.27;2.17;;;;;;;;;;6186995;28;20298;-74
2023/03/10 17:20:18;;;;;;;2.10;2.00;;;;;;;;;;6186283;28;20309;-74
2023/03/10 17:23:23;;;;;;;5.60;2.50;;;;;;;;;;6185968;28;20487;-74
2023/03/10 17:26:30;;;;;;;2.47;2.30;;;;;;;;;;6186830;28;20298;-74
2023/03/10 17:29:35;;;;;;;4.17;2.10;;;;;;;;;;6217285;28;20295;-74
2023/03/10 17:32:41;;;;;;;1.80;1.80;;;;;;;;;;6189310;28;20574;-75
2023/03/10 17:35:46;;;;;;;3.10;2.20;;;;;;;;;;6188397;28;20466;-75
2023/03/10 17:38:52;;;;;;;2.67;2.57;;;;;;;;;;6186488;28;20306;-74
2023/03/10 17:41:59;;;;;;;2.63;2.40;;;;;;;;;;6186672;28;20303;-74
2023/03/10 17:45:05;;;;;;;3.00;2.40;;;;;;;;;;6186449;28;20299;-74
2023/03/10 17:48:14;;;;;;;2.13;2.10;;;;;;;;;;6186839;28;20520;-75
2023/03/10 17:51:20;;;;;;;2.63;2.53;;;;;;;;;;6187012;28;20303;-75
2023/03/10 17:54:25;;;;;;;2.90;2.50;;;;;;;;;;6188637;28;20302;-74
2023/03/10 17:57:32;;;;;;;3.33;2.30;;;;;;;;;;6194743;28;20337;-75
2023/03/10 18:00:37;;;;;;;2.53;2.50;;;;;;;;;;6191488;28;20302;-76
2023/03/10 18:03:42;;;;;;;2.90;2.70;;;;;;;;;;6186563;28;20295;-74
2023/03/10 18:06:51;;;;;;;2.60;2.40;;;;;;;;;;6186609;28;20306;-74
2023/03/10 18:09:57;;;;;;;2.73;2.53;;;;;;;;;;6186085;28;20295;-76
2023/03/10 18:13:04;;;;;;;2.40;2.30;;;;;;;;;;6187950;28;20298;-75
2023/03/10 18:16:16;;;;;;;4.07;2.47;;;;;;;;;;6191152;28;20290;-75
2023/03/10 18:19:21;;;;;;;2.83;2.60;;;;;;;;;;6189793;28;20298;-75
2023/03/10 18:22:27;;;;;;;3.43;3.23;;;;;;;;;;6191216;28;20303;-74
2023/03/10 18:25:32;;;;;;;5.70;2.90;;;;;;;;;;6189378;28;20628;-74
2023/03/10 18:28:39;;;;;;;2.70;2.60;;;;;;;;;;6189550;28;20291;-73
2023/03/10 18:31:44;;;;;;;3.57;2.80;;;;;;;;;;6190193;28;20274;-74
2023/03/10 18:34:49;;;;;;;2.83;2.73;;;;;;;;;;6190096;28;20304;-73
2023/03/10 18:37:56;;;;;;;3.33;3.13;;;;;;;;;;6189451;28;20309;-75
2023/03/10 18:41:03;;;;;;;4.37;3.03;;;;;;;;;;6188287;28;20477;-74
2023/03/10 18:44:09;;;;;;;2.80;2.70;;;;;;;;;;6189556;28;20301;-75
2023/03/10 18:47:14;;;;;;;4.60;2.83;;;;;;;;;;6189951;28;20301;-75